Time;durP1;ratioP1;P1;durP2;ratioP2;P2;SDS_P1;SDS_P2;PMS_P1;PMS_P2;Temp;Humidity;BMP_temperature;BMP_pressure;BME280_temperature;BME280_humidity;BME280_pressure;Samples;Min_cycle;Max_cycle;Signal;HPM_P1;HPM_P2
2022/06/02 00:00:56;;;;;;;31.80;19.45;;;20.50;56.40;;;;;;4993014;28;20113;-75
2022/06/02 00:03:41;;;;;;;27.75;18.98;;;20.50;56.60;;;;;;4996509;28;20037;-75
2022/06/02 00:06:29;;;;;;;30.73;19.70;;;20.50;56.50;;;;;;5002318;28;20161;-75
2022/06/02 00:09:16;;;;;;;32.83;19.10;;;20.50;56.40;;;;;;5000506;28;20034;-75
2022/06/02 00:11:53;;;;;;;31.35;18.95;;;20.50;56.60;;;;;;4991147;28;20053;-75
2022/06/02 00:14:46;;;;;;;25.35;17.92;;;20.50;56.40;;;;;;4991616;28;20027;-75
2022/06/02 00:17:29;;;;;;;29.08;18.85;;;20.50;56.60;;;;;;5000735;28;20026;-75
2022/06/02 00:20:05;;;;;;;29.88;18.63;;;20.50;56.50;;;;;;4999661;28;20034;-75
2022/06/02 00:23:02;;;;;;;28.27;17.73;;;20.50;56.70;;;;;;4988718;28;20113;-74
2022/06/02 00:25:40;;;;;;;28.65;17.52;;;20.50;56.60;;;;;;4991778;28;20022;-75
2022/06/02 00:28:20;;;;;;;25.92;17.75;;;20.50;56.70;;;;;;5000169;28;20030;-75
2022/06/02 00:31:15;;;;;;;27.52;18.02;;;20.50;56.70;;;;;;4991432;28;20030;-75
2022/06/02 00:34:05;;;;;;;26.63;17.33;;;20.50;56.60;;;;;;4985577;28;20030;-75
2022/06/02 00:37:00;;;;;;;24.05;17.38;;;20.50;56.80;;;;;;4999458;28;20022;-75
2022/06/02 00:39:28;;;;;;;26.42;16.90;;;20.50;56.50;;;;;;4992981;28;20085;-75
2022/06/02 00:41:53;;;;;;;27.63;17.95;;;20.50;56.60;;;;;;4990634;28;20030;-74
2022/06/02 00:44:44;;;;;;;25.27;15.77;;;20.50;56.90;;;;;;4990944;28;20034;-75
2022/06/02 00:47:41;;;;;;;22.23;16.17;;;20.50;56.50;;;;;;5001377;28;20031;-74
2022/06/02 00:50:32;;;;;;;29.77;16.10;;;20.50;56.50;;;;;;5000589;28;20022;-74
2022/06/02 00:53:13;;;;;;;25.70;16.08;;;20.50;56.30;;;;;;4991502;28;20031;-74
2022/06/02 00:59:19;;;;;;;23.70;15.30;;;20.50;56.20;;;;;;4998553;28;20109;-75
2022/06/02 01:01:44;;;;;;;26.25;15.88;;;20.50;56.50;;;;;;4990448;28;20058;-74
2022/06/02 01:04:15;;;;;;;22.75;15.32;;;20.50;56.30;;;;;;4991520;28;20077;-75
2022/06/02 01:06:51;;;;;;;26.23;15.50;;;20.50;56.20;;;;;;4996176;28;20033;-74
2022/06/02 01:09:37;;;;;;;22.08;15.43;;;20.50;56.50;;;;;;4969763;28;20022;-74
2022/06/02 01:12:46;;;;;;;27.38;16.27;;;20.50;56.20;;;;;;4989687;28;20081;-75
2022/06/02 01:15:37;;;;;;;23.23;14.77;;;20.50;56.20;;;;;;5000936;28;20018;-75
2022/06/02 01:18:34;;;;;;;24.60;15.40;;;20.50;56.30;;;;;;5000869;28;20022;-75
2022/06/02 01:21:19;;;;;;;23.75;15.23;;;20.50;56.30;;;;;;4989002;28;20073;-75
2022/06/02 01:24:11;;;;;;;25.25;15.07;;;20.50;56.70;;;;;;4996705;28;20026;-75
2022/06/02 01:26:49;;;;;;;22.85;14.98;;;20.50;56.80;;;;;;4999907;28;20049;-75
2022/06/02 01:29:42;;;;;;;22.75;14.48;;;20.50;56.70;;;;;;5002759;28;20507;-75
2022/06/02 01:32:15;;;;;;;22.33;14.43;;;20.50;56.70;;;;;;4988637;28;20146;-75
2022/06/02 01:35:13;;;;;;;21.05;14.57;;;20.50;56.80;;;;;;4989253;28;20031;-75
2022/06/02 01:37:56;;;;;;;23.80;14.45;;;20.50;56.80;;;;;;4983823;28;20153;-75
2022/06/02 01:40:45;;;;;;;23.20;15.38;;;20.50;57.20;;;;;;4985656;28;20430;-74
2022/06/02 01:43:20;;;;;;;22.45;14.55;;;20.50;57.20;;;;;;4994187;28;20089;-76
2022/06/02 01:46:20;;;;;;;22.55;14.27;;;20.50;57.00;;;;;;4998862;28;20101;-76
2022/06/02 01:48:53;;;;;;;25.55;14.57;;;20.50;57.10;;;;;;4998600;28;20395;-76
2022/06/02 01:51:37;;;;;;;21.77;14.57;;;20.50;57.20;;;;;;4992645;28;20476;-75
2022/06/02 01:54:37;;;;;;;23.73;14.05;;;20.50;56.80;;;;;;4995629;28;20026;-75
2022/06/02 01:57:03;;;;;;;;;;;20.50;57.30;;;;;;5002282;28;20487;-75
2022/06/02 01:59:46;;;;;;;20.80;13.32;;;20.50;56.70;;;;;;4991910;28;19918;-75
2022/06/02 02:02:23;;;;;;;22.20;13.60;;;20.50;56.70;;;;;;4992250;28;20049;-75
2022/06/02 02:05:13;;;;;;;21.70;13.75;;;20.50;57.00;;;;;;5000386;28;20037;-75
2022/06/02 02:08:11;;;;;;;21.92;13.50;;;20.50;57.60;;;;;;4978446;28;20125;-75
2022/06/02 02:10:53;;;;;;;19.13;12.85;;;20.50;57.10;;;;;;4989070;28;20053;-75
2022/06/02 02:13:43;;;;;;;21.98;12.93;;;20.50;56.80;;;;;;4997337;28;20084;-75
2022/06/02 02:16:18;;;;;;;20.55;13.35;;;20.50;56.50;;;;;;4999581;28;20109;-75
2022/06/02 02:19:11;;;;;;;20.30;12.63;;;20.50;56.50;;;;;;4993931;28;20118;-75
2022/06/02 02:22:01;;;;;;;17.45;12.63;;;20.50;56.60;;;;;;4998954;28;20049;-75
2022/06/02 02:24:33;;;;;;;;;;;20.50;56.80;;;;;;5007241;28;20022;-76
2022/06/02 02:27:16;;;;;;;18.38;12.38;;;20.50;56.60;;;;;;5000576;28;19914;-74
2022/06/02 02:30:03;;;;;;;20.52;12.88;;;20.50;57.00;;;;;;4992512;28;20030;-75
2022/06/02 02:32:49;;;;;;;19.70;12.52;;;20.50;57.20;;;;;;4992830;28;20498;-74
2022/06/02 02:35:27;;;;;;;19.40;12.05;;;20.50;57.00;;;;;;5005191;28;20493;-74
2022/06/02 02:38:10;;;;;;;18.00;12.20;;;20.50;57.20;;;;;;5003462;28;20030;-75
2022/06/02 02:40:48;;;;;;;17.98;11.80;;;20.50;57.10;;;;;;4994078;28;20376;-75
2022/06/02 02:43:25;;;;;;;20.30;11.57;;;20.50;57.00;;;;;;4995859;28;20084;-76
2022/06/02 02:46:13;;;;;;;19.48;12.00;;;20.50;56.60;;;;;;5005198;28;20490;-74
2022/06/02 02:49:01;;;;;;;18.45;12.32;;;20.50;56.70;;;;;;4998354;28;20122;-75
2022/06/02 02:51:55;;;;;;;19.27;12.60;;;20.50;56.80;;;;;;4997156;28;20018;-74
2022/06/02 02:54:40;;;;;;;18.83;12.00;;;20.50;56.90;;;;;;4998032;28;20030;-75
2022/06/02 02:57:28;;;;;;;18.25;11.73;;;20.40;56.90;;;;;;5011391;28;20116;-75
2022/06/02 03:00:02;;;;;;;20.35;12.15;;;20.50;56.90;;;;;;4990928;28;20026;-75
2022/06/02 03:02:30;;;;;;;18.95;11.63;;;20.50;56.70;;;;;;4990249;28;20030;-76
2022/06/02 03:05:10;;;;;;;19.15;12.00;;;20.50;56.80;;;;;;5001546;28;20030;-76
2022/06/02 03:07:37;;;;;;;18.10;11.15;;;20.50;56.70;;;;;;5001443;28;20080;-75
2022/06/02 03:10:35;;;;;;;18.85;11.65;;;20.50;56.80;;;;;;4991972;28;20033;-75
2022/06/02 03:13:13;;;;;;;17.70;11.38;;;20.50;57.00;;;;;;4990251;28;20034;-76
2022/06/02 03:15:53;;;;;;;18.95;11.25;;;20.40;57.50;;;;;;5000096;28;20500;-76
2022/06/02 03:18:37;;;;;;;16.13;11.27;;;20.50;57.00;;;;;;4999931;28;20027;-75
2022/06/02 03:21:37;;;;;;;19.67;11.93;;;20.40;57.00;;;;;;5001222;28;20046;-76
2022/06/02 03:24:16;;;;;;;19.92;11.35;;;20.50;57.10;;;;;;4992705;28;20555;-75
2022/06/02 03:27:04;;;;;;;16.97;11.23;;;20.40;57.20;;;;;;5006587;28;20595;-75
2022/06/02 03:29:29;;;;;;;15.95;10.88;;;20.50;57.30;;;;;;4994780;28;20026;-76
2022/06/02 03:32:29;;;;;;;19.27;10.82;;;20.40;57.00;;;;;;4989965;28;20505;-76
2022/06/02 03:35:01;;;;;;;17.30;11.32;;;20.40;57.40;;;;;;4989180;28;20030;-75
2022/06/02 03:37:40;;;;;;;15.48;10.88;;;20.50;57.00;;;;;;4992945;28;20097;-76
2022/06/02 03:40:31;;;;;;;19.98;11.63;;;20.40;57.10;;;;;;5001085;28;20499;-76
2022/06/02 03:43:06;;;;;;;21.25;11.32;;;20.50;57.10;;;;;;4986998;28;20022;-76
2022/06/02 03:45:50;;;;;;;17.60;10.25;;;20.50;57.60;;;;;;5000808;28;20059;-76
2022/06/02 03:48:35;;;;;;;18.35;10.70;;;20.50;57.70;;;;;;4999443;28;20069;-76
2022/06/02 03:51:27;;;;;;;16.77;10.70;;;20.50;57.50;;;;;;5002500;28;20399;-76
2022/06/02 03:54:07;;;;;;;15.43;9.98;;;20.50;57.40;;;;;;4984229;28;20052;-76
2022/06/02 03:56:33;;;;;;;16.33;10.30;;;20.50;57.70;;;;;;4995161;28;20430;-76
2022/06/02 03:59:10;;;;;;;16.60;10.30;;;20.50;57.70;;;;;;5001245;28;20042;-76
2022/06/02 04:01:39;;;;;;;17.98;10.60;;;20.40;56.90;;;;;;4998210;28;20114;-76
2022/06/02 04:04:17;;;;;;;15.18;9.70;;;20.40;56.90;;;;;;4992496;28;20431;-76
2022/06/02 04:07:23;;;;;;;16.40;10.85;;;20.40;56.90;;;;;;5003376;28;20490;-76
2022/06/02 04:10:09;;;;;;;16.10;10.05;;;20.40;57.10;;;;;;4995384;28;20042;-76
2022/06/02 04:15:31;;;;;;;17.27;10.25;;;20.50;57.20;;;;;;4993198;28;20445;-76
2022/06/02 04:18:28;;;;;;;15.05;9.50;;;20.40;56.90;;;;;;4974136;28;20039;-76
2022/06/02 04:21:21;;;;;;;17.23;9.57;;;20.50;57.20;;;;;;4975874;28;20076;-76
2022/06/02 04:23:53;;;;;;;16.38;10.15;;;20.40;57.50;;;;;;4986965;28;20034;-76
2022/06/02 04:26:53;;;;;;;15.43;9.70;;;20.40;57.30;;;;;;4990258;28;20121;-76
2022/06/02 04:29:36;;;;;;;18.25;10.48;;;20.40;57.10;;;;;;4995894;28;20092;-76
2022/06/02 04:32:30;;;;;;;18.45;10.00;;;20.40;56.90;;;;;;4994358;28;20506;-76
2022/06/02 04:35:38;;;;;;;15.48;9.18;;;20.40;57.30;;;;;;4991450;28;20027;-77
2022/06/02 04:38:44;;;;;;;13.93;8.68;;;20.40;57.30;;;;;;4999852;28;20027;-76
2022/06/02 04:41:22;;;;;;;16.80;9.50;;;20.40;57.50;;;;;;5001560;28;20034;-76
2022/06/02 04:44:15;;;;;;;15.18;9.15;;;20.50;57.70;;;;;;4989412;28;20030;-76
2022/06/02 04:47:03;;;;;;;16.60;9.65;;;20.40;57.30;;;;;;4995039;28;20026;-76
2022/06/02 04:49:55;;;;;;;14.93;9.00;;;20.40;57.30;;;;;;4995910;28;20561;-76
2022/06/02 04:52:29;;;;;;;15.45;9.07;;;20.40;57.50;;;;;;4986627;28;20022;-75
2022/06/02 04:55:20;;;;;;;14.57;9.27;;;20.50;57.30;;;;;;4998315;28;20022;-76
2022/06/02 04:57:59;;;;;;;16.25;9.60;;;20.40;57.30;;;;;;5010195;28;20025;-76
2022/06/02 05:00:43;;;;;;;12.75;8.55;;;20.50;57.40;;;;;;4989826;28;20034;-76
2022/06/02 05:03:41;;;;;;;15.02;8.52;;;20.40;58.10;;;;;;4992433;28;20439;-76
2022/06/02 05:06:27;;;;;;;13.63;8.70;;;20.40;57.60;;;;;;4999848;28;20065;-77
2022/06/02 05:09:01;;;;;;;17.98;9.18;;;20.40;57.80;;;;;;5001234;28;20430;-75
2022/06/02 05:11:57;;;;;;;14.70;9.00;;;20.40;57.60;;;;;;4989696;28;20031;-75
2022/06/02 05:14:49;;;;;;;17.08;9.38;;;20.40;57.50;;;;;;4998965;28;20026;-76
2022/06/02 05:17:36;;;;;;;15.80;9.00;;;20.40;57.40;;;;;;5006329;28;20478;-75
2022/06/02 05:20:40;;;;;;;18.02;8.30;;;20.40;57.70;;;;;;4985049;28;20432;-74
2022/06/02 05:23:14;;;;;;;13.07;8.30;;;20.40;57.60;;;;;;4989947;28;20527;-74
2022/06/02 05:25:42;;;;;;;12.65;8.77;;;20.40;57.40;;;;;;5005489;28;20105;-75
2022/06/02 05:28:28;;;;;;;17.00;8.07;;;20.40;57.60;;;;;;4980786;28;20513;-74
2022/06/02 05:31:14;;;;;;;15.35;9.10;;;20.40;57.30;;;;;;4979791;28;20109;-74
2022/06/02 05:34:27;;;;;;;12.55;8.23;;;20.40;57.60;;;;;;4997683;28;20041;-74
2022/06/02 05:37:20;;;;;;;13.48;7.93;;;20.40;57.30;;;;;;4963399;28;20604;-74
2022/06/02 05:40:08;;;;;;;12.90;8.48;;;20.40;57.50;;;;;;4994968;28;20062;-75
2022/06/02 05:42:43;;;;;;;12.70;8.32;;;20.40;57.50;;;;;;4987976;28;20033;-74
2022/06/02 05:45:27;;;;;;;13.77;8.10;;;20.40;57.60;;;;;;5001075;28;20040;-74
2022/06/02 05:48:38;;;;;;;14.38;8.73;;;20.40;57.40;;;;;;5004431;28;20036;-74
2022/06/02 05:51:40;;;;;;;15.00;8.10;;;20.40;57.70;;;;;;4977288;28;20054;-74
2022/06/02 05:54:24;;;;;;;14.15;8.20;;;20.40;57.90;;;;;;4999795;28;20494;-74
2022/06/02 05:57:19;;;;;;;14.32;8.60;;;20.40;57.60;;;;;;4999436;28;20041;-75
2022/06/02 05:59:57;;;;;;;12.80;8.10;;;20.40;57.30;;;;;;4997512;28;20018;-75
2022/06/02 06:02:34;;;;;;;12.82;8.27;;;20.40;57.40;;;;;;4993491;28;20542;-75
2022/06/02 06:05:13;;;;;;;13.35;7.88;;;20.40;57.60;;;;;;4997572;28;20078;-75
2022/06/02 06:07:55;;;;;;;14.32;7.85;;;20.40;57.60;;;;;;4994369;28;20430;-75
2022/06/02 06:10:42;;;;;;;12.20;8.18;;;20.50;57.50;;;;;;4988813;28;20030;-74
2022/06/02 06:13:17;;;;;;;11.57;7.70;;;20.40;57.60;;;;;;4994131;28;20069;-75
2022/06/02 06:15:54;;;;;;;12.77;7.35;;;20.50;57.90;;;;;;4998990;28;20029;-75
2022/06/02 06:18:45;;;;;;;17.77;8.32;;;20.40;58.20;;;;;;4972963;28;20026;-74
2022/06/02 06:22:00;;;;;;;13.00;8.45;;;20.50;57.80;;;;;;4994869;28;20045;-74
2022/06/02 06:24:44;;;;;;;13.00;8.00;;;20.40;57.70;;;;;;4997578;28;20071;-75
2022/06/02 06:27:25;;;;;;;17.00;8.80;;;20.40;57.60;;;;;;5001710;28;20031;-75
2022/06/02 06:30:23;;;;;;;12.32;8.00;;;20.40;57.30;;;;;;4993220;28;20999;-75
2022/06/02 06:33:10;;;;;;;15.80;8.13;;;20.40;57.30;;;;;;4980174;28;20042;-75
2022/06/02 06:35:51;;;;;;;11.77;7.60;;;20.40;57.50;;;;;;4993688;28;20029;-75
2022/06/02 06:38:40;;;;;;;13.32;7.43;;;20.40;57.80;;;;;;4995500;28;20441;-75
2022/06/02 06:41:28;;;;;;;16.23;8.65;;;20.40;57.40;;;;;;4990594;28;20607;-75
2022/06/02 06:44:05;;;;;;;13.98;7.68;;;20.50;57.90;;;;;;4999784;28;20061;-75
2022/06/02 06:46:37;;;;;;;11.93;7.38;;;20.50;57.70;;;;;;4990964;28;20025;-75
2022/06/02 06:49:12;;;;;;;14.48;8.35;;;20.50;58.10;;;;;;4998110;28;20029;-75
2022/06/02 06:52:02;;;;;;;12.63;7.97;;;20.50;57.60;;;;;;4993050;28;20113;-75
2022/06/02 06:55:11;;;;;;;12.80;7.65;;;20.40;57.80;;;;;;4992131;28;20028;-75
2022/06/02 06:58:02;;;;;;;12.52;7.97;;;20.40;57.50;;;;;;4995803;28;20030;-76
2022/06/02 07:00:46;;;;;;;13.18;7.72;;;20.50;57.80;;;;;;4984645;28;20495;-76
2022/06/02 07:03:27;;;;;;;11.90;7.63;;;20.50;58.10;;;;;;4995062;28;20068;-76
2022/06/02 07:06:03;;;;;;;14.90;7.93;;;20.50;57.90;;;;;;5004483;28;20026;-76
2022/06/02 07:08:52;;;;;;;13.70;7.80;;;20.40;58.10;;;;;;4996554;28;20060;-77
2022/06/02 07:14:42;;;;;;;14.10;7.45;;;20.50;58.40;;;;;;4993251;28;20041;-78
2022/06/02 07:17:23;;;;;;;14.82;7.65;;;20.50;59.30;;;;;;4992784;28;20042;-76
2022/06/02 07:20:07;;;;;;;19.20;8.60;;;20.50;59.80;;;;;;4990729;28;20041;-76
2022/06/02 07:22:48;;;;;;;21.25;8.70;;;20.60;59.80;;;;;;4998757;28;20025;-76
2022/06/02 07:25:34;;;;;;;21.45;8.38;;;20.70;60.40;;;;;;4999420;28;20026;-75
2022/06/02 07:28:26;;;;;;;15.98;8.38;;;20.80;59.80;;;;;;4991128;28;20046;-78
2022/06/02 07:31:24;;;;;;;18.08;9.00;;;20.70;60.60;;;;;;4988613;28;20038;-77
2022/06/02 07:33:57;;;;;;;23.40;7.50;;;20.70;61.40;;;;;;4999118;28;20114;-76
2022/06/02 07:37:02;;;;;;;17.52;6.35;;;20.60;59.70;;;;;;4971063;28;20015;-80
2022/06/02 07:40:06;;;;;;;17.60;7.25;;;20.50;58.50;;;;;;4986465;28;20101;-79
2022/06/02 07:42:51;;;;;;;19.38;9.60;;;20.50;58.90;;;;;;4988902;28;20545;-78
2022/06/02 07:45:36;;;;;;;18.80;11.13;;;20.40;59.30;;;;;;4995661;28;20054;-77
2022/06/02 07:48:33;;;;;;;17.05;9.05;;;20.40;57.80;;;;;;4992032;28;20031;-78
2022/06/02 07:51:44;;;;;;;15.52;8.38;;;20.40;58.50;;;;;;4988578;28;20061;-78
2022/06/02 07:54:31;;;;;;;12.80;6.18;;;20.40;57.20;;;;;;4971336;28;20107;-78
2022/06/02 07:57:14;;;;;;;10.40;6.35;;;20.30;57.10;;;;;;5002747;28;20029;-78
2022/06/02 08:00:02;;;;;;;13.40;4.80;;;20.30;56.70;;;;;;4995962;28;20035;-75
2022/06/02 08:02:35;;;;;;;9.77;4.65;;;20.30;55.20;;;;;;4984535;28;20479;-74
2022/06/02 08:05:08;;;;;;;8.50;4.68;;;20.30;55.70;;;;;;4992424;28;20027;-74
2022/06/02 08:07:49;;;;;;;8.35;4.47;;;20.30;56.20;;;;;;4992268;28;20034;-75
2022/06/02 08:10:37;;;;;;;10.30;4.38;;;20.30;56.00;;;;;;4992830;28;20089;-75
2022/06/02 08:13:10;;;;;;;10.60;4.63;;;20.40;55.90;;;;;;4991650;28;20031;-75
2022/06/02 08:15:50;;;;;;;13.27;4.85;;;20.40;56.20;;;;;;4992039;28;20038;-75
2022/06/02 08:18:30;;;;;;;;;;;20.40;56.20;;;;;;4989854;28;20018;-75
2022/06/02 08:21:15;;;;;;;62.30;9.25;;;20.40;56.10;;;;;;4992010;28;19964;-74
2022/06/02 08:24:17;;;;;;;35.40;7.88;;;20.50;56.90;;;;;;4991935;28;20391;-76
2022/06/02 08:26:49;;;;;;;32.38;7.28;;;20.50;56.80;;;;;;4990768;28;20050;-75
2022/06/02 08:29:53;;;;;;;33.75;6.40;;;20.50;56.90;;;;;;4989577;28;20399;-77
2022/06/02 08:32:45;;;;;;;43.17;6.63;;;20.50;57.00;;;;;;4971117;28;20098;-76
2022/06/02 08:35:27;;;;;;;26.05;6.88;;;20.60;57.00;;;;;;4972536;28;20464;-76
2022/06/02 08:38:18;;;;;;;22.35;6.68;;;20.60;57.10;;;;;;4975660;28;20030;-77
2022/06/02 08:41:29;;;;;;;25.50;7.00;;;20.60;57.40;;;;;;4987276;28;20031;-75
2022/06/02 08:44:19;;;;;;;23.50;5.80;;;20.60;57.00;;;;;;4986747;28;20034;-75
2022/06/02 08:46:57;;;;;;;22.40;6.47;;;20.60;56.70;;;;;;4997180;28;20030;-77
2022/06/02 08:49:50;;;;;;;27.27;6.53;;;20.60;57.70;;;;;;5013143;28;20029;-79
2022/06/02 08:53:08;;;;;;;20.17;7.13;;;20.70;57.40;;;;;;4985352;28;20391;-78
2022/06/02 08:56:11;;;;;;;16.95;6.50;;;20.70;57.30;;;;;;4993283;28;20177;-78
2022/06/02 08:59:16;;;;;;;17.88;6.65;;;20.70;57.20;;;;;;5002947;28;20372;-78
2022/06/02 09:01:50;;;;;;;15.63;6.13;;;20.60;57.10;;;;;;5008774;28;20030;-77
2022/06/02 09:04:34;;;;;;;23.27;6.65;;;20.60;57.30;;;;;;5002021;28;20026;-78
2022/06/02 09:07:25;;;;;;;17.67;6.38;;;20.60;57.50;;;;;;5004038;28;20034;-78
2022/06/02 09:10:02;;;;;;;17.05;6.20;;;20.60;57.20;;;;;;5012156;28;20032;-79
2022/06/02 09:12:52;;;;;;;15.60;6.00;;;20.60;57.40;;;;;;4990728;28;20029;-80
2022/06/02 09:15:27;;;;;;;;;;;20.60;57.40;;;;;;4970661;28;20399;-78
2022/06/02 09:18:33;;;;;;;18.15;5.53;;;20.60;57.40;;;;;;4994773;28;19909;-78
2022/06/02 09:21:13;;;;;;;13.43;5.75;;;20.60;57.50;;;;;;4994171;28;20557;-77
2022/06/02 09:24:09;;;;;;;13.02;5.72;;;20.60;57.60;;;;;;4991446;28;20047;-76
2022/06/02 09:27:22;;;;;;;12.95;5.53;;;20.60;57.60;;;;;;4989596;28;20650;-79
2022/06/02 09:30:11;;;;;;;17.77;5.65;;;20.60;57.50;;;;;;4995121;28;20073;-77
2022/06/02 09:33:55;;;;;;;15.45;5.20;;;20.60;57.50;;;;;;4995621;28;20467;-80
2022/06/02 09:36:26;;;;;;;13.68;5.22;;;20.60;57.20;;;;;;4973995;28;20104;-79
2022/06/02 09:39:29;;;;;;;10.55;4.07;;;20.60;56.90;;;;;;4993613;28;20217;-76
2022/06/02 09:42:14;;;;;;;10.50;4.15;;;20.60;56.60;;;;;;4962726;28;20082;-77
2022/06/02 09:44:52;;;;;;;13.98;4.40;;;20.60;56.60;;;;;;4994080;28;20030;-77
2022/06/02 09:47:54;;;;;;;14.45;4.15;;;20.60;56.30;;;;;;4992885;28;20438;-77
2022/06/02 09:50:39;;;;;;;9.00;4.38;;;20.60;55.70;;;;;;4992187;28;20097;-76
2022/06/02 09:53:28;;;;;;;8.85;3.47;;;20.60;56.10;;;;;;4993101;28;20033;-75
2022/06/02 09:56:20;;;;;;;10.32;4.65;;;20.60;56.10;;;;;;4993091;28;20554;-77
2022/06/02 09:59:23;;;;;;;12.93;3.90;;;20.60;55.60;;;;;;4994299;28;20061;-77
2022/06/02 10:02:23;;;;;;;13.85;3.97;;;20.60;55.60;;;;;;4992457;28;20027;-76
2022/06/02 10:05:22;;;;;;;16.05;3.58;;;20.60;55.70;;;;;;4993034;28;20031;-77
2022/06/02 10:08:05;;;;;;;8.38;3.85;;;20.60;56.00;;;;;;4989354;28;20022;-79
2022/06/02 10:10:54;;;;;;;12.73;3.88;;;20.60;56.00;;;;;;4992944;28;20041;-75
2022/06/02 10:13:37;;;;;;;7.15;3.35;;;20.70;56.60;;;;;;4986510;28;20109;-76
2022/06/02 10:16:21;;;;;;;11.77;3.83;;;20.70;55.70;;;;;;4994546;28;20408;-78
2022/06/02 10:19:29;;;;;;;11.05;3.60;;;20.70;55.60;;;;;;4990543;28;20530;-79
2022/06/02 10:22:17;;;;;;;6.60;3.20;;;20.60;54.70;;;;;;4990139;28;20030;-75
2022/06/02 10:25:24;;;;;;;11.00;3.45;;;20.60;54.90;;;;;;4976349;28;20036;-74
2022/06/02 10:28:23;;;;;;;8.02;3.42;;;20.60;56.20;;;;;;4991540;28;20038;-74
2022/06/02 10:31:14;;;;;;;7.13;2.83;;;20.60;54.60;;;;;;4990177;28;20030;-74
2022/06/02 10:33:58;;;;;;;9.88;2.60;;;20.60;55.00;;;;;;4993955;28;20379;-75
2022/06/02 10:36:43;;;;;;;5.68;2.67;;;20.60;54.20;;;;;;4992471;28;20026;-74
2022/06/02 10:39:43;;;;;;;5.07;2.60;;;20.60;53.60;;;;;;4991534;28;20088;-74
2022/06/02 10:42:41;;;;;;;8.27;2.50;;;20.60;54.20;;;;;;4992393;28;20034;-76
2022/06/02 10:45:31;;;;;;;6.20;2.13;;;20.70;53.10;;;;;;4991294;28;20054;-75
2022/06/02 10:48:15;;;;;;;7.10;3.60;;;20.60;54.10;;;;;;4990754;28;20030;-75
2022/06/02 10:51:01;;;;;;;68.80;50.55;;;20.60;53.90;;;;;;4993405;28;20046;-76
2022/06/02 10:53:58;;;;;;;50.03;32.33;;;20.60;52.00;;;;;;4993630;28;20104;-77
2022/06/02 10:56:50;;;;;;;50.65;34.03;;;20.60;52.90;;;;;;4999468;28;20061;-77
2022/06/02 10:59:42;;;;;;;45.67;31.65;;;20.70;53.40;;;;;;4983931;28;20041;-78
2022/06/02 11:02:52;;;;;;;51.63;33.63;;;20.70;53.60;;;;;;4983526;28;20057;-75
2022/06/02 11:05:23;;;;;;;49.78;32.13;;;20.70;53.10;;;;;;4990523;28;20049;-75
2022/06/02 11:08:33;;;;;;;41.40;30.70;;;20.70;52.50;;;;;;4992004;28;20046;-75
2022/06/02 11:11:36;;;;;;;44.08;28.35;;;20.70;52.00;;;;;;4975553;28;20046;-75
2022/06/02 11:14:34;;;;;;;39.70;26.20;;;20.70;52.30;;;;;;4993471;28;20542;-76
2022/06/02 11:17:06;;;;;;;35.33;22.95;;;20.70;51.70;;;;;;4991886;28;20042;-76
2022/06/02 11:20:10;;;;;;;31.13;21.10;;;20.70;51.70;;;;;;4993215;28;20027;-76
2022/06/02 11:23:14;;;;;;;26.42;17.35;;;20.70;51.60;;;;;;4990256;28;20406;-76
2022/06/02 11:26:11;;;;;;;23.17;15.75;;;20.70;51.10;;;;;;4958390;28;20036;-76
2022/06/02 11:28:55;;;;;;;24.25;15.40;;;20.70;50.80;;;;;;4987602;28;20081;-77
2022/06/02 11:31:48;;;;;;;22.73;14.38;;;20.70;50.60;;;;;;4985035;28;20490;-76
2022/06/02 11:34:45;;;;;;;19.20;12.60;;;20.70;50.70;;;;;;4975490;28;20049;-76
2022/06/02 11:37:47;;;;;;;19.08;10.90;;;20.70;50.50;;;;;;4988712;28;20398;-77
2022/06/02 11:40:44;;;;;;;20.20;10.05;;;20.70;50.20;;;;;;4992667;28;20034;-78
2022/06/02 11:43:24;;;;;;;17.27;9.38;;;20.70;49.80;;;;;;4992536;28;20042;-78
2022/06/02 11:46:09;;;;;;;19.50;9.20;;;20.70;50.20;;;;;;4991944;28;20034;-78
2022/06/02 11:49:13;;;;;;;17.17;8.27;;;20.70;50.00;;;;;;4991156;28;20022;-80
2022/06/02 11:52:07;;;;;;;13.82;7.38;;;20.70;49.40;;;;;;4972060;28;20042;-80
2022/06/02 11:55:07;;;;;;;12.82;6.88;;;20.70;49.60;;;;;;4982787;28;20038;-81
2022/06/02 11:57:39;;;;;;;;;;;20.70;49.40;;;;;;4991585;28;20034;-80
2022/06/02 12:00:50;;;;;;;15.02;6.25;;;20.70;49.40;;;;;;4992270;28;19914;-80
2022/06/02 12:03:33;;;;;;;10.57;5.47;;;20.70;49.20;;;;;;4991664;28;20052;-80
2022/06/02 12:06:24;;;;;;;11.45;6.18;;;20.70;49.30;;;;;;4997067;28;20034;-80
2022/06/02 12:09:30;;;;;;;9.68;5.00;;;20.70;48.90;;;;;;4990299;28;20483;-79
2022/06/02 12:12:10;;;;;;;9.02;4.90;;;20.70;49.00;;;;;;4998378;28;20061;-80
2022/06/02 12:14:49;;;;;;;14.82;4.88;;;20.70;48.80;;;;;;4986223;28;20040;-78
2022/06/02 12:17:40;;;;;;;7.72;4.15;;;20.70;49.10;;;;;;4989315;28;20533;-80
2022/06/02 12:20:32;;;;;;;7.22;3.72;;;20.70;48.50;;;;;;4991593;28;20034;-80
2022/06/02 12:23:08;;;;;;;9.75;3.88;;;20.70;48.30;;;;;;5011190;28;20068;-80
2022/06/02 12:25:54;;;;;;;9.13;4.28;;;20.70;48.00;;;;;;5011616;28;20034;-79
2022/06/02 12:28:57;;;;;;;8.10;3.90;;;20.70;48.60;;;;;;4994060;28;20030;-79
2022/06/02 12:31:42;;;;;;;8.27;4.18;;;20.70;48.40;;;;;;4983249;28;20041;-79
2022/06/02 12:34:32;;;;;;;7.05;3.60;;;20.70;48.00;;;;;;4989537;28;20031;-79
2022/06/02 12:37:27;;;;;;;7.30;3.40;;;20.70;48.40;;;;;;4990595;28;20077;-77
2022/06/02 12:40:26;;;;;;;6.90;3.45;;;20.70;48.20;;;;;;4994189;28;20033;-79
2022/06/02 12:43:11;;;;;;;6.50;3.28;;;20.70;48.20;;;;;;4992085;28;20022;-78
2022/06/02 12:45:46;;;;;;;4.93;2.80;;;20.70;47.70;;;;;;4991617;28;20057;-79
2022/06/02 12:48:35;;;;;;;6.85;3.10;;;20.70;47.60;;;;;;4989797;28;20084;-76
2022/06/02 12:51:19;;;;;;;7.20;3.00;;;20.70;47.70;;;;;;4990435;28;20039;-76
2022/06/02 12:54:13;;;;;;;7.65;3.30;;;20.70;47.40;;;;;;4990681;28;20479;-76
2022/06/02 12:56:57;;;;;;;5.28;2.50;;;20.70;48.00;;;;;;4988771;28;20117;-76
2022/06/02 12:59:52;;;;;;;6.13;3.00;;;20.70;48.10;;;;;;5004990;28;20524;-76
2022/06/02 13:02:39;;;;;;;6.72;3.72;;;20.70;48.40;;;;;;4970561;28;20503;-76
2022/06/02 13:05:48;;;;;;;7.05;3.53;;;20.60;47.60;;;;;;4972339;28;20026;-76
2022/06/02 13:08:38;;;;;;;7.10;2.90;;;20.60;47.40;;;;;;4973385;28;20066;-76
2022/06/02 13:11:10;;;;;;;7.75;3.42;;;20.60;47.40;;;;;;4991618;28;20065;-74
2022/06/02 13:14:09;;;;;;;6.55;3.15;;;20.60;47.70;;;;;;4991402;28;20069;-75
2022/06/02 13:16:59;;;;;;;6.13;2.90;;;20.60;48.00;;;;;;4991827;28;20035;-75
2022/06/02 13:19:28;;;;;;;;;;;20.60;47.90;;;;;;4984245;28;20042;-75
2022/06/02 13:22:15;;;;;;;5.07;2.72;;;20.60;48.40;;;;;;4990187;28;19910;-75
2022/06/02 13:24:56;;;;;;;9.18;2.53;;;20.60;48.40;;;;;;4991417;28;20031;-75
2022/06/02 13:27:53;;;;;;;4.80;2.65;;;20.60;48.10;;;;;;4989783;28;20092;-75
2022/06/02 13:30:43;;;;;;;4.82;2.78;;;20.60;47.90;;;;;;4972000;28;20042;-75
2022/06/02 13:33:39;;;;;;;5.43;2.50;;;20.60;47.60;;;;;;4991393;28;20045;-75
2022/06/02 13:36:43;;;;;;;5.20;2.28;;;20.60;47.30;;;;;;4978210;28;20102;-75
2022/06/02 13:39:39;;;;;;;6.90;4.18;;;20.60;47.40;;;;;;4994570;28;20575;-74
2022/06/02 13:42:15;;;;;;;67.97;47.03;;;20.60;47.30;;;;;;4995114;28;20121;-74
2022/06/02 13:45:09;;;;;;;51.67;38.75;;;20.60;46.90;;;;;;4977542;28;20118;-74
2022/06/02 13:47:58;;;;;;;54.47;41.35;;;20.60;46.50;;;;;;4993502;28;20026;-74
2022/06/02 13:50:57;;;;;;;45.25;32.88;;;20.60;46.90;;;;;;4975224;28;20031;-75
2022/06/02 14:00:11;;;;;;;37.72;28.40;;;20.60;47.60;;;;;;4993461;28;20038;-76
2022/06/02 14:03:07;;;;;;;36.72;26.80;;;20.60;47.60;;;;;;4994603;28;20117;-76
2022/06/02 14:05:44;;;;;;;34.08;24.95;;;20.60;48.10;;;;;;4993554;28;20030;-75
2022/06/02 14:08:27;;;;;;;30.08;21.73;;;20.60;47.20;;;;;;4992982;28;20034;-75
2022/06/02 14:11:17;;;;;;;25.10;18.05;;;20.60;47.20;;;;;;4994352;28;20034;-76
2022/06/02 14:14:02;;;;;;;22.90;15.63;;;20.60;47.40;;;;;;4994519;28;20430;-76
2022/06/02 14:17:02;;;;;;;23.60;15.02;;;20.60;47.80;;;;;;4992916;28;20026;-75
2022/06/02 14:19:37;;;;;;;27.30;18.90;;;20.60;47.10;;;;;;4979241;28;20031;-75
2022/06/02 14:22:14;;;;;;;23.05;15.98;;;20.60;47.70;;;;;;4994196;28;20026;-75
2022/06/02 14:25:02;;;;;;;18.55;12.20;;;20.60;47.80;;;;;;4992739;28;20545;-76
2022/06/02 14:27:44;;;;;;;19.15;12.82;;;20.60;47.30;;;;;;4993732;28;20077;-75
2022/06/02 14:30:19;;;;;;;15.18;10.02;;;20.60;47.60;;;;;;4991809;28;20037;-75
2022/06/02 14:32:48;;;;;;;15.65;10.70;;;20.60;47.60;;;;;;4994370;28;20428;-75
2022/06/02 14:35:42;;;;;;;16.40;10.05;;;20.60;47.60;;;;;;4993076;28;20053;-75